sensor_id;sensor_type;location;lat;lon;timestamp;P1;durP1;ratioP1;P2;durP2;ratioP2
14074;SDS011;12831;52.392;13.066;2023-01-01T00:00:03;14.13;;;4.63;;
14074;SDS011;12831;52.392;13.066;2023-01-01T00:02:45;7.80;;;4.55;;
14074;SDS011;12831;52.392;13.066;2023-01-01T00:05:12;7.80;;;4.05;;
14074;SDS011;12831;52.392;13.066;2023-01-01T00:07:38;10.05;;;3.40;;
14074;SDS011;12831;52.392;13.066;2023-01-01T00:10:19;11.38;;;5.10;;
14074;SDS011;12831;52.392;13.066;2023-01-01T00:12:58;9.27;;;5.20;;
14074;SDS011;12831;52.392;13.066;2023-01-01T00:17:58;9.40;;;3.55;;
14074;SDS011;12831;52.392;13.066;2023-01-01T00:20:34;7.10;;;3.47;;
14074;SDS011;12831;52.392;13.066;2023-01-01T00:25:47;7.93;;;3.45;;
14074;SDS011;12831;52.392;13.066;2023-01-01T00:28:28;3.42;;;2.20;;
14074;SDS011;12831;52.392;13.066;2023-01-01T00:30:55;4.25;;;2.70;;
14074;SDS011;12831;52.392;13.066;2023-01-01T00:33:22;7.60;;;2.50;;
14074;SDS011;12831;52.392;13.066;2023-01-01T00:35:49;6.53;;;2.03;;
14074;SDS011;12831;52.392;13.066;2023-01-01T00:38:16;7.68;;;2.17;;
14074;SDS011;12831;52.392;13.066;2023-01-01T00:40:44;8.05;;;2.00;;
14074;SDS011;12831;52.392;13.066;2023-01-01T00:43:11;4.25;;;1.90;;
14074;SDS011;12831;52.392;13.066;2023-01-01T00:48:26;9.40;;;2.60;;
14074;SDS011;12831;52.392;13.066;2023-01-01T00:51:07;4.95;;;2.10;;
14074;SDS011;12831;52.392;13.066;2023-01-01T00:53:59;9.57;;;2.33;;
14074;SDS011;12831;52.392;13.066;2023-01-01T00:56:26;9.50;;;2.92;;
14074;SDS011;12831;52.392;13.066;2023-01-01T00:59:07;7.22;;;2.80;;
14074;SDS011;12831;52.392;13.066;2023-01-01T01:01:32;7.22;;;2.00;;
14074;SDS011;12831;52.392;13.066;2023-01-01T01:03:59;6.95;;;2.40;;
14074;SDS011;12831;52.392;13.066;2023-01-01T01:06:26;5.70;;;2.30;;
14074;SDS011;12831;52.392;13.066;2023-01-01T01:08:52;12.32;;;3.03;;
14074;SDS011;12831;52.392;13.066;2023-01-01T01:11:32;6.22;;;2.88;;
14074;SDS011;12831;52.392;13.066;2023-01-01T01:14:03;9.25;;;2.95;;
14074;SDS011;12831;52.392;13.066;2023-01-01T01:16:31;8.05;;;2.58;;
14074;SDS011;12831;52.392;13.066;2023-01-01T01:19:12;7.18;;;2.67;;
14074;SDS011;12831;52.392;13.066;2023-01-01T01:21:44;7.18;;;3.60;;
14074;SDS011;12831;52.392;13.066;2023-01-01T01:27:26;10.73;;;4.10;;
14074;SDS011;12831;52.392;13.066;2023-01-01T01:29:56;7.18;;;3.13;;
14074;SDS011;12831;52.392;13.066;2023-01-01T01:32:22;8.75;;;3.10;;
14074;SDS011;12831;52.392;13.066;2023-01-01T01:34:50;6.10;;;3.63;;
14074;SDS011;12831;52.392;13.066;2023-01-01T01:37:30;5.90;;;3.03;;
14074;SDS011;12831;52.392;13.066;2023-01-01T01:39:59;9.85;;;3.50;;
14074;SDS011;12831;52.392;13.066;2023-01-01T01:42:29;6.53;;;3.25;;
14074;SDS011;12831;52.392;13.066;2023-01-01T01:44:57;7.82;;;3.83;;
14074;SDS011;12831;52.392;13.066;2023-01-01T01:52:41;6.25;;;2.90;;
14074;SDS011;12831;52.392;13.066;2023-01-01T01:55:10;7.07;;;3.53;;
14074;SDS011;12831;52.392;13.066;2023-01-01T01:57:41;7.18;;;4.20;;
14074;SDS011;12831;52.392;13.066;2023-01-01T02:00:07;5.03;;;3.10;;
14074;SDS011;12831;52.392;13.066;2023-01-01T02:02:53;10.40;;;3.03;;
14074;SDS011;12831;52.392;13.066;2023-01-01T02:05:20;7.28;;;3.15;;
14074;SDS011;12831;52.392;13.066;2023-01-01T02:07:47;7.07;;;3.05;;
14074;SDS011;12831;52.392;13.066;2023-01-01T02:10:13;7.35;;;2.50;;
14074;SDS011;12831;52.392;13.066;2023-01-01T02:12:39;9.18;;;2.80;;
14074;SDS011;12831;52.392;13.066;2023-01-01T02:15:05;12.38;;;3.88;;
14074;SDS011;12831;52.392;13.066;2023-01-01T02:17:38;9.65;;;3.03;;
14074;SDS011;12831;52.392;13.066;2023-01-01T02:30:57;10.05;;;2.95;;
14074;SDS011;12831;52.392;13.066;2023-01-01T02:33:24;10.82;;;2.63;;
14074;SDS011;12831;52.392;13.066;2023-01-01T02:35:52;12.18;;;3.20;;
14074;SDS011;12831;52.392;13.066;2023-01-01T02:38:42;12.57;;;3.88;;
14074;SDS011;12831;52.392;13.066;2023-01-01T02:41:08;7.93;;;3.92;;
14074;SDS011;12831;52.392;13.066;2023-01-01T02:43:36;8.35;;;3.55;;
14074;SDS011;12831;52.392;13.066;2023-01-01T02:46:05;9.88;;;2.97;;
14074;SDS011;12831;52.392;13.066;2023-01-01T02:48:42;7.72;;;3.03;;
14074;SDS011;12831;52.392;13.066;2023-01-01T02:58:51;10.63;;;3.42;;
14074;SDS011;12831;52.392;13.066;2023-01-01T03:01:42;8.07;;;3.15;;
14074;SDS011;12831;52.392;13.066;2023-01-01T03:13:00;9.80;;;3.58;;
14074;SDS011;12831;52.392;13.066;2023-01-01T03:17:53;7.60;;;2.67;;
14074;SDS011;12831;52.392;13.066;2023-01-01T03:20:23;5.93;;;2.80;;
14074;SDS011;12831;52.392;13.066;2023-01-01T03:22:50;11.80;;;3.97;;
14074;SDS011;12831;52.392;13.066;2023-01-01T03:25:24;7.60;;;3.00;;
14074;SDS011;12831;52.392;13.066;2023-01-01T03:27:52;5.07;;;2.50;;
14074;SDS011;12831;52.392;13.066;2023-01-01T03:30:18;8.55;;;3.53;;
14074;SDS011;12831;52.392;13.066;2023-01-01T03:32:49;7.40;;;2.63;;
14074;SDS011;12831;52.392;13.066;2023-01-01T03:35:36;8.02;;;3.05;;
14074;SDS011;12831;52.392;13.066;2023-01-01T03:38:04;7.05;;;2.97;;
14074;SDS011;12831;52.392;13.066;2023-01-01T03:40:32;10.55;;;2.85;;
14074;SDS011;12831;52.392;13.066;2023-01-01T03:43:05;7.90;;;3.00;;
14074;SDS011;12831;52.392;13.066;2023-01-01T03:45:34;9.57;;;3.33;;
14074;SDS011;12831;52.392;13.066;2023-01-01T03:48:01;9.32;;;3.33;;
14074;SDS011;12831;52.392;13.066;2023-01-01T03:50:40;9.07;;;2.97;;
14074;SDS011;12831;52.392;13.066;2023-01-01T03:53:14;6.93;;;3.13;;
14074;SDS011;12831;52.392;13.066;2023-01-01T03:55:46;8.32;;;2.70;;
14074;SDS011;12831;52.392;13.066;2023-01-01T03:58:22;7.18;;;3.22;;
14074;SDS011;12831;52.392;13.066;2023-01-01T04:01:25;13.45;;;3.53;;
14074;SDS011;12831;52.392;13.066;2023-01-01T04:03:42;6.65;;;2.85;;
14074;SDS011;12831;52.392;13.066;2023-01-01T04:06:09;6.82;;;3.70;;
14074;SDS011;12831;52.392;13.066;2023-01-01T04:08:36;8.02;;;3.15;;
14074;SDS011;12831;52.392;13.066;2023-01-01T04:11:03;7.85;;;2.63;;
14074;SDS011;12831;52.392;13.066;2023-01-01T04:13:50;8.30;;;3.08;;
14074;SDS011;12831;52.392;13.066;2023-01-01T04:16:16;8.10;;;3.45;;
14074;SDS011;12831;52.392;13.066;2023-01-01T04:18:42;6.15;;;3.08;;
14074;SDS011;12831;52.392;13.066;2023-01-01T04:21:07;5.68;;;2.70;;
14074;SDS011;12831;52.392;13.066;2023-01-01T04:23:33;7.32;;;2.85;;
14074;SDS011;12831;52.392;13.066;2023-01-01T04:25:59;5.53;;;3.08;;
14074;SDS011;12831;52.392;13.066;2023-01-01T04:28:24;7.05;;;2.90;;
14074;SDS011;12831;52.392;13.066;2023-01-01T04:30:50;11.95;;;3.92;;
14074;SDS011;12831;52.392;13.066;2023-01-01T04:33:19;9.50;;;2.92;;
14074;SDS011;12831;52.392;13.066;2023-01-01T04:35:46;8.40;;;3.00;;
14074;SDS011;12831;52.392;13.066;2023-01-01T04:38:12;6.82;;;3.08;;
14074;SDS011;12831;52.392;13.066;2023-01-01T04:40:38;7.35;;;3.22;;
14074;SDS011;12831;52.392;13.066;2023-01-01T04:43:04;6.28;;;2.92;;
14074;SDS011;12831;52.392;13.066;2023-01-01T04:45:30;9.48;;;2.75;;
14074;SDS011;12831;52.392;13.066;2023-01-01T04:47:56;8.00;;;3.20;;
14074;SDS011;12831;52.392;13.066;2023-01-01T04:50:21;10.05;;;3.58;;
14074;SDS011;12831;52.392;13.066;2023-01-01T04:52:47;8.70;;;2.58;;
14074;SDS011;12831;52.392;13.066;2023-01-01T04:55:16;6.60;;;3.25;;
14074;SDS011;12831;52.392;13.066;2023-01-01T04:57:41;9.52;;;3.33;;
14074;SDS011;12831;52.392;13.066;2023-01-01T05:00:07;8.43;;;3.03;;
14074;SDS011;12831;52.392;13.066;2023-01-01T05:02:33;5.85;;;3.13;;
14074;SDS011;12831;52.392;13.066;2023-01-01T05:04:59;5.97;;;3.10;;
14074;SDS011;12831;52.392;13.066;2023-01-01T05:07:25;8.52;;;2.72;;
14074;SDS011;12831;52.392;13.066;2023-01-01T05:09:51;8.75;;;2.80;;
14074;SDS011;12831;52.392;13.066;2023-01-01T05:12:16;6.75;;;3.15;;
14074;SDS011;12831;52.392;13.066;2023-01-01T05:14:42;10.40;;;2.65;;
14074;SDS011;12831;52.392;13.066;2023-01-01T05:17:08;8.40;;;2.90;;
14074;SDS011;12831;52.392;13.066;2023-01-01T05:19:34;9.60;;;3.20;;
14074;SDS011;12831;52.392;13.066;2023-01-01T05:21:59;11.00;;;2.92;;
14074;SDS011;12831;52.392;13.066;2023-01-01T05:24:33;9.43;;;3.42;;
14074;SDS011;12831;52.392;13.066;2023-01-01T05:27:00;7.07;;;2.35;;
14074;SDS011;12831;52.392;13.066;2023-01-01T05:29:26;5.80;;;2.25;;
14074;SDS011;12831;52.392;13.066;2023-01-01T05:31:52;6.57;;;2.42;;
14074;SDS011;12831;52.392;13.066;2023-01-01T05:34:18;7.93;;;3.08;;
14074;SDS011;12831;52.392;13.066;2023-01-01T05:36:46;7.40;;;3.50;;
14074;SDS011;12831;52.392;13.066;2023-01-01T05:39:19;8.48;;;3.45;;
14074;SDS011;12831;52.392;13.066;2023-01-01T05:41:46;6.55;;;3.10;;
14074;SDS011;12831;52.392;13.066;2023-01-01T05:44:12;4.80;;;2.50;;
14074;SDS011;12831;52.392;13.066;2023-01-01T05:46:40;6.80;;;2.45;;
14074;SDS011;12831;52.392;13.066;2023-01-01T05:49:08;7.07;;;2.80;;
14074;SDS011;12831;52.392;13.066;2023-01-01T05:51:34;6.03;;;3.10;;
14074;SDS011;12831;52.392;13.066;2023-01-01T05:54:00;5.35;;;2.20;;
14074;SDS011;12831;52.392;13.066;2023-01-01T05:56:27;6.78;;;2.45;;
14074;SDS011;12831;52.392;13.066;2023-01-01T05:58:54;4.75;;;2.78;;
14074;SDS011;12831;52.392;13.066;2023-01-01T06:01:24;4.38;;;1.95;;
14074;SDS011;12831;52.392;13.066;2023-01-01T06:03:51;7.82;;;2.78;;
14074;SDS011;12831;52.392;13.066;2023-01-01T06:06:18;6.30;;;1.90;;
14074;SDS011;12831;52.392;13.066;2023-01-01T06:08:48;5.68;;;2.55;;
14074;SDS011;12831;52.392;13.066;2023-01-01T06:11:14;8.32;;;2.50;;
14074;SDS011;12831;52.392;13.066;2023-01-01T06:13:40;5.35;;;2.67;;
14074;SDS011;12831;52.392;13.066;2023-01-01T06:16:06;4.63;;;2.03;;
14074;SDS011;12831;52.392;13.066;2023-01-01T06:18:33;5.53;;;2.15;;
14074;SDS011;12831;52.392;13.066;2023-01-01T06:21:03;5.03;;;2.85;;
14074;SDS011;12831;52.392;13.066;2023-01-01T06:23:28;5.60;;;2.17;;
14074;SDS011;12831;52.392;13.066;2023-01-01T06:25:54;4.82;;;2.50;;
14074;SDS011;12831;52.392;13.066;2023-01-01T06:28:20;6.60;;;2.55;;
14074;SDS011;12831;52.392;13.066;2023-01-01T06:30:46;8.23;;;3.17;;
14074;SDS011;12831;52.392;13.066;2023-01-01T06:33:11;7.13;;;2.22;;
14074;SDS011;12831;52.392;13.066;2023-01-01T06:35:37;8.25;;;3.40;;
14074;SDS011;12831;52.392;13.066;2023-01-01T06:38:03;5.30;;;2.33;;
14074;SDS011;12831;52.392;13.066;2023-01-01T06:40:29;5.00;;;2.78;;
14074;SDS011;12831;52.392;13.066;2023-01-01T06:42:54;9.13;;;2.60;;
14074;SDS011;12831;52.392;13.066;2023-01-01T06:45:20;5.05;;;2.28;;
14074;SDS011;12831;52.392;13.066;2023-01-01T06:47:47;5.43;;;1.95;;
14074;SDS011;12831;52.392;13.066;2023-01-01T06:50:13;8.52;;;2.50;;
14074;SDS011;12831;52.392;13.066;2023-01-01T06:52:39;7.22;;;2.40;;
14074;SDS011;12831;52.392;13.066;2023-01-01T06:55:04;7.80;;;2.17;;
14074;SDS011;12831;52.392;13.066;2023-01-01T06:57:30;5.68;;;2.15;;
14074;SDS011;12831;52.392;13.066;2023-01-01T06:59:59;8.30;;;2.65;;
14074;SDS011;12831;52.392;13.066;2023-01-01T07:02:24;5.05;;;2.08;;
14074;SDS011;12831;52.392;13.066;2023-01-01T07:04:50;4.57;;;2.58;;
14074;SDS011;12831;52.392;13.066;2023-01-01T07:07:16;8.55;;;2.65;;
14074;SDS011;12831;52.392;13.066;2023-01-01T07:09:42;11.23;;;2.72;;
14074;SDS011;12831;52.392;13.066;2023-01-01T07:12:07;7.35;;;3.08;;
14074;SDS011;12831;52.392;13.066;2023-01-01T07:14:33;8.23;;;3.15;;
14074;SDS011;12831;52.392;13.066;2023-01-01T07:16:59;6.80;;;2.35;;
14074;SDS011;12831;52.392;13.066;2023-01-01T07:19:25;7.13;;;2.35;;
14074;SDS011;12831;52.392;13.066;2023-01-01T07:21:51;5.90;;;3.17;;
14074;SDS011;12831;52.392;13.066;2023-01-01T07:24:18;6.57;;;3.03;;
14074;SDS011;12831;52.392;13.066;2023-01-01T07:26:44;4.32;;;2.72;;
14074;SDS011;12831;52.392;13.066;2023-01-01T07:29:10;7.35;;;2.85;;
14074;SDS011;12831;52.392;13.066;2023-01-01T07:31:38;8.18;;;4.03;;
14074;SDS011;12831;52.392;13.066;2023-01-01T07:34:05;7.00;;;3.40;;
14074;SDS011;12831;52.392;13.066;2023-01-01T07:36:31;4.78;;;2.20;;
14074;SDS011;12831;52.392;13.066;2023-01-01T07:38:57;6.10;;;2.78;;
14074;SDS011;12831;52.392;13.066;2023-01-01T07:41:22;7.18;;;2.95;;
14074;SDS011;12831;52.392;13.066;2023-01-01T07:43:48;6.75;;;3.25;;
14074;SDS011;12831;52.392;13.066;2023-01-01T07:46:14;6.72;;;2.90;;
14074;SDS011;12831;52.392;13.066;2023-01-01T07:48:43;5.72;;;3.22;;
14074;SDS011;12831;52.392;13.066;2023-01-01T07:51:09;10.32;;;3.80;;
14074;SDS011;12831;52.392;13.066;2023-01-01T07:53:35;17.20;;;3.08;;
14074;SDS011;12831;52.392;13.066;2023-01-01T07:56:01;6.07;;;3.00;;
14074;SDS011;12831;52.392;13.066;2023-01-01T07:58:27;7.10;;;2.95;;
14074;SDS011;12831;52.392;13.066;2023-01-01T08:00:52;8.80;;;3.03;;
14074;SDS011;12831;52.392;13.066;2023-01-01T08:03:18;8.02;;;2.90;;
14074;SDS011;12831;52.392;13.066;2023-01-01T08:05:44;6.10;;;3.13;;
14074;SDS011;12831;52.392;13.066;2023-01-01T08:08:10;7.82;;;3.05;;
14074;SDS011;12831;52.392;13.066;2023-01-01T08:10:36;5.95;;;2.95;;
14074;SDS011;12831;52.392;13.066;2023-01-01T08:13:03;12.45;;;3.63;;
14074;SDS011;12831;52.392;13.066;2023-01-01T08:15:29;9.10;;;3.47;;
14074;SDS011;12831;52.392;13.066;2023-01-01T08:17:59;7.78;;;3.17;;
14074;SDS011;12831;52.392;13.066;2023-01-01T08:20:25;8.10;;;3.50;;
14074;SDS011;12831;52.392;13.066;2023-01-01T08:22:51;6.13;;;3.55;;
14074;SDS011;12831;52.392;13.066;2023-01-01T08:25:17;10.27;;;3.83;;
14074;SDS011;12831;52.392;13.066;2023-01-01T08:27:43;7.30;;;3.05;;
14074;SDS011;12831;52.392;13.066;2023-01-01T08:30:10;7.68;;;3.78;;
14074;SDS011;12831;52.392;13.066;2023-01-01T08:32:35;5.90;;;3.15;;
14074;SDS011;12831;52.392;13.066;2023-01-01T08:35:01;8.25;;;3.95;;
14074;SDS011;12831;52.392;13.066;2023-01-01T08:37:27;12.40;;;3.70;;
14074;SDS011;12831;52.392;13.066;2023-01-01T08:39:53;7.20;;;3.80;;
14074;SDS011;12831;52.392;13.066;2023-01-01T08:42:19;8.63;;;3.13;;
14074;SDS011;12831;52.392;13.066;2023-01-01T08:44:44;7.22;;;3.67;;
14074;SDS011;12831;52.392;13.066;2023-01-01T08:47:18;9.63;;;2.80;;
14074;SDS011;12831;52.392;13.066;2023-01-01T08:49:44;5.53;;;3.40;;
14074;SDS011;12831;52.392;13.066;2023-01-01T08:52:10;7.13;;;2.70;;
14074;SDS011;12831;52.392;13.066;2023-01-01T08:54:35;7.88;;;3.00;;
14074;SDS011;12831;52.392;13.066;2023-01-01T08:57:01;7.03;;;3.28;;
14074;SDS011;12831;52.392;13.066;2023-01-01T08:59:27;5.47;;;3.25;;
14074;SDS011;12831;52.392;13.066;2023-01-01T09:01:53;6.85;;;2.20;;
14074;SDS011;12831;52.392;13.066;2023-01-01T09:04:19;6.20;;;3.47;;
14074;SDS011;12831;52.392;13.066;2023-01-01T09:06:45;8.52;;;2.63;;
14074;SDS011;12831;52.392;13.066;2023-01-01T09:09:10;6.45;;;2.83;;
14074;SDS011;12831;52.392;13.066;2023-01-01T09:11:36;7.22;;;2.95;;
14074;SDS011;12831;52.392;13.066;2023-01-01T09:14:02;12.68;;;3.72;;
14074;SDS011;12831;52.392;13.066;2023-01-01T09:16:28;7.82;;;3.13;;
14074;SDS011;12831;52.392;13.066;2023-01-01T09:18:53;9.90;;;3.50;;
14074;SDS011;12831;52.392;13.066;2023-01-01T09:21:19;7.53;;;2.80;;
14074;SDS011;12831;52.392;13.066;2023-01-01T09:23:45;8.50;;;3.20;;
14074;SDS011;12831;52.392;13.066;2023-01-01T09:26:11;7.85;;;2.92;;
14074;SDS011;12831;52.392;13.066;2023-01-01T09:28:36;6.57;;;2.72;;
14074;SDS011;12831;52.392;13.066;2023-01-01T09:31:03;5.45;;;2.38;;
14074;SDS011;12831;52.392;13.066;2023-01-01T09:33:31;5.05;;;2.95;;
14074;SDS011;12831;52.392;13.066;2023-01-01T09:36:13;10.55;;;3.42;;
14074;SDS011;12831;52.392;13.066;2023-01-01T09:38:39;7.18;;;2.60;;
14074;SDS011;12831;52.392;13.066;2023-01-01T09:41:09;4.82;;;2.38;;
14074;SDS011;12831;52.392;13.066;2023-01-01T09:43:42;4.63;;;2.45;;
14074;SDS011;12831;52.392;13.066;2023-01-01T09:46:11;7.35;;;2.38;;
14074;SDS011;12831;52.392;13.066;2023-01-01T09:48:38;14.98;;;4.63;;
14074;SDS011;12831;52.392;13.066;2023-01-01T09:51:08;6.90;;;2.60;;
14074;SDS011;12831;52.392;13.066;2023-01-01T09:56:22;7.22;;;2.50;;
14074;SDS011;12831;52.392;13.066;2023-01-01T09:58:49;8.98;;;2.25;;
14074;SDS011;12831;52.392;13.066;2023-01-01T10:01:17;6.00;;;2.70;;
14074;SDS011;12831;52.392;13.066;2023-01-01T10:04:01;5.65;;;2.22;;
14074;SDS011;12831;52.392;13.066;2023-01-01T10:06:29;3.30;;;1.92;;
14074;SDS011;12831;52.392;13.066;2023-01-01T10:09:12;5.65;;;2.58;;
14074;SDS011;12831;52.392;13.066;2023-01-01T10:14:31;4.88;;;2.63;;
14074;SDS011;12831;52.392;13.066;2023-01-01T10:17:16;7.18;;;3.22;;
14074;SDS011;12831;52.392;13.066;2023-01-01T10:19:46;4.75;;;2.00;;
14074;SDS011;12831;52.392;13.066;2023-01-01T10:25:20;5.15;;;2.15;;
14074;SDS011;12831;52.392;13.066;2023-01-01T10:28:04;5.35;;;2.45;;
14074;SDS011;12831;52.392;13.066;2023-01-01T10:30:35;3.85;;;2.30;;
14074;SDS011;12831;52.392;13.066;2023-01-01T10:33:04;9.70;;;2.28;;
14074;SDS011;12831;52.392;13.066;2023-01-01T10:35:43;3.67;;;2.13;;
14074;SDS011;12831;52.392;13.066;2023-01-01T10:38:19;7.60;;;2.00;;
14074;SDS011;12831;52.392;13.066;2023-01-01T10:41:05;5.18;;;1.80;;
14074;SDS011;12831;52.392;13.066;2023-01-01T10:43:44;4.22;;;2.13;;
14074;SDS011;12831;52.392;13.066;2023-01-01T10:46:25;5.20;;;1.88;;
14074;SDS011;12831;52.392;13.066;2023-01-01T10:49:10;7.05;;;2.85;;
14074;SDS011;12831;52.392;13.066;2023-01-01T10:51:41;3.75;;;1.80;;
14074;SDS011;12831;52.392;13.066;2023-01-01T10:54:38;5.53;;;1.92;;
14074;SDS011;12831;52.392;13.066;2023-01-01T10:57:21;6.22;;;2.08;;
14074;SDS011;12831;52.392;13.066;2023-01-01T11:00:30;4.50;;;1.57;;
14074;SDS011;12831;52.392;13.066;2023-01-01T11:08:33;4.93;;;1.95;;
14074;SDS011;12831;52.392;13.066;2023-01-01T11:11:21;10.95;;;2.15;;
14074;SDS011;12831;52.392;13.066;2023-01-01T11:13:58;3.38;;;2.20;;
14074;SDS011;12831;52.392;13.066;2023-01-01T11:16:40;6.18;;;2.40;;
14074;SDS011;12831;52.392;13.066;2023-01-01T11:19:07;5.85;;;2.42;;
14074;SDS011;12831;52.392;13.066;2023-01-01T11:21:34;5.10;;;1.83;;
14074;SDS011;12831;52.392;13.066;2023-01-01T11:24:09;4.90;;;2.20;;
14074;SDS011;12831;52.392;13.066;2023-01-01T11:26:37;7.03;;;2.10;;
14074;SDS011;12831;52.392;13.066;2023-01-01T11:31:45;6.53;;;1.88;;
14074;SDS011;12831;52.392;13.066;2023-01-01T11:34:34;3.00;;;1.65;;
14074;SDS011;12831;52.392;13.066;2023-01-01T11:39:43;5.05;;;1.67;;
14074;SDS011;12831;52.392;13.066;2023-01-01T11:42:19;4.03;;;1.67;;
14074;SDS011;12831;52.392;13.066;2023-01-01T11:44:55;4.32;;;2.30;;
14074;SDS011;12831;52.392;13.066;2023-01-01T11:47:34;3.08;;;1.75;;
14074;SDS011;12831;52.392;13.066;2023-01-01T11:52:54;5.60;;;2.20;;
14074;SDS011;12831;52.392;13.066;2023-01-01T11:55:42;5.70;;;1.85;;
14074;SDS011;12831;52.392;13.066;2023-01-01T12:00:46;4.15;;;1.98;;
14074;SDS011;12831;52.392;13.066;2023-01-01T12:03:34;4.40;;;1.55;;
14074;SDS011;12831;52.392;13.066;2023-01-01T12:06:10;7.55;;;2.65;;
14074;SDS011;12831;52.392;13.066;2023-01-01T12:08:57;4.70;;;1.67;;
14074;SDS011;12831;52.392;13.066;2023-01-01T12:14:18;3.70;;;1.60;;
14074;SDS011;12831;52.392;13.066;2023-01-01T12:16:56;10.90;;;2.67;;
14074;SDS011;12831;52.392;13.066;2023-01-01T12:19:41;4.40;;;1.90;;
14074;SDS011;12831;52.392;13.066;2023-01-01T12:22:14;4.25;;;1.83;;
14074;SDS011;12831;52.392;13.066;2023-01-01T12:24:45;5.82;;;1.85;;
14074;SDS011;12831;52.392;13.066;2023-01-01T12:30:14;8.00;;;2.28;;
14074;SDS011;12831;52.392;13.066;2023-01-01T12:36:07;5.00;;;2.28;;
14074;SDS011;12831;52.392;13.066;2023-01-01T12:41:34;6.60;;;2.33;;
14074;SDS011;12831;52.392;13.066;2023-01-01T12:44:39;7.50;;;2.10;;
14074;SDS011;12831;52.392;13.066;2023-01-01T12:58:28;6.40;;;1.98;;
14074;SDS011;12831;52.392;13.066;2023-01-01T13:00:58;3.90;;;1.63;;
14074;SDS011;12831;52.392;13.066;2023-01-01T13:03:27;5.03;;;1.60;;
14074;SDS011;12831;52.392;13.066;2023-01-01T13:05:56;5.57;;;1.65;;
14074;SDS011;12831;52.392;13.066;2023-01-01T13:08:24;5.32;;;2.35;;
14074;SDS011;12831;52.392;13.066;2023-01-01T13:11:05;7.28;;;1.73;;
14074;SDS011;12831;52.392;13.066;2023-01-01T13:13:41;7.38;;;2.20;;
14074;SDS011;12831;52.392;13.066;2023-01-01T13:16:09;6.57;;;1.42;;
14074;SDS011;12831;52.392;13.066;2023-01-01T13:18:46;4.15;;;1.75;;
14074;SDS011;12831;52.392;13.066;2023-01-01T13:26:52;10.82;;;2.60;;
14074;SDS011;12831;52.392;13.066;2023-01-01T13:42:45;3.70;;;1.42;;
14074;SDS011;12831;52.392;13.066;2023-01-01T13:45:42;6.53;;;1.70;;
14074;SDS011;12831;52.392;13.066;2023-01-01T13:56:25;5.95;;;2.15;;
14074;SDS011;12831;52.392;13.066;2023-01-01T14:03:59;9.40;;;2.58;;
14074;SDS011;12831;52.392;13.066;2023-01-01T14:06:28;6.40;;;2.45;;
14074;SDS011;12831;52.392;13.066;2023-01-01T14:09:08;5.18;;;2.20;;
14074;SDS011;12831;52.392;13.066;2023-01-01T14:11:36;11.32;;;2.97;;
14074;SDS011;12831;52.392;13.066;2023-01-01T14:16:58;5.90;;;2.50;;
14074;SDS011;12831;52.392;13.066;2023-01-01T14:19:34;4.70;;;2.10;;
14074;SDS011;12831;52.392;13.066;2023-01-01T14:25:24;6.22;;;2.60;;
14074;SDS011;12831;52.392;13.066;2023-01-01T14:30:19;5.82;;;2.50;;
14074;SDS011;12831;52.392;13.066;2023-01-01T14:32:55;7.88;;;3.35;;
14074;SDS011;12831;52.392;13.066;2023-01-01T14:35:36;7.68;;;2.85;;
14074;SDS011;12831;52.392;13.066;2023-01-01T14:43:38;7.63;;;2.70;;
14074;SDS011;12831;52.392;13.066;2023-01-01T14:46:07;5.75;;;2.42;;
14074;SDS011;12831;52.392;13.066;2023-01-01T14:48:41;10.88;;;3.30;;
14074;SDS011;12831;52.392;13.066;2023-01-01T14:51:23;9.07;;;3.10;;
14074;SDS011;12831;52.392;13.066;2023-01-01T14:57:02;7.15;;;2.80;;
14074;SDS011;12831;52.392;13.066;2023-01-01T14:59:30;8.85;;;3.28;;
14074;SDS011;12831;52.392;13.066;2023-01-01T15:04:40;6.53;;;2.70;;
14074;SDS011;12831;52.392;13.066;2023-01-01T15:07:25;6.45;;;3.00;;
14074;SDS011;12831;52.392;13.066;2023-01-01T15:09:54;5.85;;;3.03;;
14074;SDS011;12831;52.392;13.066;2023-01-01T15:12:25;8.35;;;3.35;;
14074;SDS011;12831;52.392;13.066;2023-01-01T15:14:53;13.55;;;4.95;;
14074;SDS011;12831;52.392;13.066;2023-01-01T15:17:24;7.78;;;4.00;;
14074;SDS011;12831;52.392;13.066;2023-01-01T15:22:53;9.07;;;3.92;;
14074;SDS011;12831;52.392;13.066;2023-01-01T15:25:21;6.68;;;3.85;;
14074;SDS011;12831;52.392;13.066;2023-01-01T15:27:59;8.90;;;3.30;;
14074;SDS011;12831;52.392;13.066;2023-01-01T15:30:29;9.00;;;3.40;;
14074;SDS011;12831;52.392;13.066;2023-01-01T15:33:14;8.55;;;3.90;;
14074;SDS011;12831;52.392;13.066;2023-01-01T15:35:45;12.43;;;4.20;;
14074;SDS011;12831;52.392;13.066;2023-01-01T15:38:30;6.65;;;3.75;;
14074;SDS011;12831;52.392;13.066;2023-01-01T15:42:00;10.65;;;4.03;;
14074;SDS011;12831;52.392;13.066;2023-01-01T15:46:45;10.75;;;3.05;;
14074;SDS011;12831;52.392;13.066;2023-01-01T15:57:29;8.18;;;2.53;;
14074;SDS011;12831;52.392;13.066;2023-01-01T15:59:57;6.50;;;2.63;;
14074;SDS011;12831;52.392;13.066;2023-01-01T16:02:28;7.40;;;2.90;;
14074;SDS011;12831;52.392;13.066;2023-01-01T16:05:01;5.55;;;2.65;;
14074;SDS011;12831;52.392;13.066;2023-01-01T16:07:31;10.27;;;2.97;;
14074;SDS011;12831;52.392;13.066;2023-01-01T16:10:15;15.23;;;3.67;;
14074;SDS011;12831;52.392;13.066;2023-01-01T16:12:42;11.23;;;3.67;;
14074;SDS011;12831;52.392;13.066;2023-01-01T16:15:30;8.77;;;4.13;;
14074;SDS011;12831;52.392;13.066;2023-01-01T16:18:03;10.18;;;3.35;;
14074;SDS011;12831;52.392;13.066;2023-01-01T16:20:38;6.82;;;3.35;;
14074;SDS011;12831;52.392;13.066;2023-01-01T16:25:45;7.38;;;3.67;;
14074;SDS011;12831;52.392;13.066;2023-01-01T16:28:13;9.82;;;3.50;;
14074;SDS011;12831;52.392;13.066;2023-01-01T16:30:39;7.60;;;3.88;;
14074;SDS011;12831;52.392;13.066;2023-01-01T16:33:22;10.27;;;3.10;;
14074;SDS011;12831;52.392;13.066;2023-01-01T16:35:53;8.30;;;4.13;;
14074;SDS011;12831;52.392;13.066;2023-01-01T16:38:20;7.15;;;4.10;;
14074;SDS011;12831;52.392;13.066;2023-01-01T16:40:47;7.45;;;3.25;;
14074;SDS011;12831;52.392;13.066;2023-01-01T16:45:43;7.97;;;3.58;;
14074;SDS011;12831;52.392;13.066;2023-01-01T16:48:11;8.68;;;3.45;;
14074;SDS011;12831;52.392;13.066;2023-01-01T16:50:38;6.60;;;2.92;;
14074;SDS011;12831;52.392;13.066;2023-01-01T16:53:07;9.35;;;3.95;;
14074;SDS011;12831;52.392;13.066;2023-01-01T16:55:34;7.57;;;2.88;;
14074;SDS011;12831;52.392;13.066;2023-01-01T16:58:08;9.43;;;3.83;;
14074;SDS011;12831;52.392;13.066;2023-01-01T17:00:58;11.05;;;3.58;;
14074;SDS011;12831;52.392;13.066;2023-01-01T17:03:25;13.15;;;3.83;;
14074;SDS011;12831;52.392;13.066;2023-01-01T17:06:07;13.20;;;3.25;;
14074;SDS011;12831;52.392;13.066;2023-01-01T17:08:35;7.50;;;3.33;;
14074;SDS011;12831;52.392;13.066;2023-01-01T17:11:05;7.65;;;3.65;;
14074;SDS011;12831;52.392;13.066;2023-01-01T17:13:35;11.85;;;3.35;;
14074;SDS011;12831;52.392;13.066;2023-01-01T17:18:32;12.88;;;4.35;;
14074;SDS011;12831;52.392;13.066;2023-01-01T17:21:13;11.00;;;4.97;;
14074;SDS011;12831;52.392;13.066;2023-01-01T17:26:28;14.48;;;7.32;;
14074;SDS011;12831;52.392;13.066;2023-01-01T17:28:56;15.25;;;6.47;;
14074;SDS011;12831;52.392;13.066;2023-01-01T17:31:26;13.30;;;5.35;;
14074;SDS011;12831;52.392;13.066;2023-01-01T17:33:54;12.85;;;6.60;;
14074;SDS011;12831;52.392;13.066;2023-01-01T17:36:24;14.93;;;6.43;;
14074;SDS011;12831;52.392;13.066;2023-01-01T17:39:08;14.30;;;7.60;;
14074;SDS011;12831;52.392;13.066;2023-01-01T17:41:41;17.27;;;5.32;;
14074;SDS011;12831;52.392;13.066;2023-01-01T17:44:08;12.52;;;5.47;;